Time;durP1;ratioP1;P1;durP2;ratioP2;P2;SDS_P1;SDS_P2;PMS_P1;PMS_P2;Temp;Humidity;BMP_temperature;BMP_pressure;BME280_temperature;BME280_humidity;BME280_pressure;Samples;Min_cycle;Max_cycle;Signal;HPM_P1;HPM_P2
2022/04/09 02:26:04;;;;;;;0.40;0.40;;;3.90;99.90;;;;;;5131068;27;20382;-66
2022/04/09 02:28:32;;;;;;;0.30;0.30;;;3.70;99.90;;;;;;5131164;27;20035;-66
2022/04/09 02:30:58;;;;;;;0.60;0.50;;;3.60;99.90;;;;;;5131082;27;20047;-66
2022/04/09 02:46:13;;;;;;;0.30;0.30;;;3.80;99.90;;;;;;5049139;28;20436;-66
2022/04/09 02:48:39;;;;;;;0.30;0.30;;;3.70;99.90;;;;;;5046703;28;20041;-66
2022/04/09 03:04:17;;;;;;;0.40;0.30;;;3.50;99.90;;;;;;5131341;27;20382;-73
2022/04/09 03:06:42;;;;;;;0.32;0.32;;;3.70;99.90;;;;;;5130008;27;20115;-73
2022/04/09 03:09:08;;;;;;;0.47;0.30;;;3.80;99.90;;;;;;5131189;27;20165;-72
2022/04/09 03:11:34;;;;;;;0.90;0.30;;;4.00;99.90;;;;;;5131095;27;20062;-73
2022/04/09 03:25:39;;;;;;;0.35;0.20;;;3.80;99.90;;;;;;5119205;27;20379;-66
2022/04/09 03:28:05;;;;;;;0.20;0.20;;;3.50;99.90;;;;;;5131399;27;20040;-66
2022/04/09 03:30:31;;;;;;;0.45;0.13;;;3.50;99.90;;;;;;5131117;27;20043;-66
2022/04/09 03:32:56;;;;;;;0.10;0.10;;;3.50;99.90;;;;;;5130834;27;20039;-66
2022/04/09 03:35:22;;;;;;;0.17;0.17;;;3.50;99.90;;;;;;5131194;27;20050;-66
2022/04/09 03:37:49;;;;;;;0.10;0.10;;;3.50;99.90;;;;;;5131081;27;20028;-66
2022/04/09 03:40:14;;;;;;;0.20;0.20;;;3.40;99.90;;;;;;5131050;27;20114;-66
2022/04/09 03:42:40;;;;;;;0.95;0.30;;;3.50;99.90;;;;;;5130747;27;20138;-66
2022/04/09 03:45:06;;;;;;;0.35;0.30;;;3.40;99.90;;;;;;5130655;27;20043;-66
2022/04/09 03:47:33;;;;;;;2.28;0.30;;;3.40;99.90;;;;;;5130498;27;20087;-66
2022/04/09 03:50:03;;;;;;;0.10;0.10;;;3.50;99.90;;;;;;5130609;27;20043;-66
2022/04/09 03:52:29;;;;;;;0.40;0.30;;;3.50;99.90;;;;;;5130845;27;20047;-66
2022/04/09 03:54:55;;;;;;;0.30;0.30;;;3.50;99.90;;;;;;5130712;27;20052;-66
2022/04/09 03:57:21;;;;;;;0.55;0.40;;;3.60;99.90;;;;;;5130452;27;20034;-66
2022/04/09 03:59:48;;;;;;;0.20;0.20;;;3.60;99.90;;;;;;5130432;27;20050;-66
2022/04/09 04:02:14;;;;;;;0.85;0.40;;;3.50;99.90;;;;;;5130330;27;20402;-66
2022/04/09 04:04:40;;;;;;;2.10;0.30;;;3.60;99.90;;;;;;5130450;27;20035;-66
2022/04/09 04:07:06;;;;;;;0.85;0.40;;;3.60;99.90;;;;;;5130567;27;20505;-66
2022/04/09 04:09:31;;;;;;;0.30;0.30;;;3.70;99.90;;;;;;5112489;27;20031;-65
2022/04/09 04:11:58;;;;;;;0.47;0.40;;;3.60;99.90;;;;;;5109909;28;20053;-65
2022/04/09 04:14:25;;;;;;;0.50;0.40;;;3.40;99.90;;;;;;5106412;28;20051;-66
2022/04/09 04:16:51;;;;;;;0.20;0.20;;;3.40;99.90;;;;;;5107835;28;20046;-65
2022/04/09 04:19:17;;;;;;;0.30;0.30;;;3.50;99.90;;;;;;5109367;28;20047;-65
2022/04/09 04:21:43;;;;;;;0.30;0.30;;;3.30;99.90;;;;;;5115559;28;20760;-65
2022/04/09 04:24:08;;;;;;;1.08;0.28;;;3.40;99.90;;;;;;5108551;28;20092;-65
2022/04/09 04:26:34;;;;;;;0.30;0.30;;;3.30;99.90;;;;;;5095931;28;20430;-65
2022/04/09 04:29:00;;;;;;;0.43;0.40;;;3.20;99.90;;;;;;5095875;28;20494;-65
2022/04/09 04:31:26;;;;;;;0.63;0.40;;;3.10;99.90;;;;;;5096078;28;20074;-65
2022/04/09 04:33:51;;;;;;;0.85;0.35;;;3.10;99.90;;;;;;5094671;28;20048;-65
2022/04/09 04:36:17;;;;;;;0.50;0.40;;;3.10;99.90;;;;;;5095983;28;20089;-65
2022/04/09 04:38:43;;;;;;;0.45;0.45;;;3.20;99.90;;;;;;5095616;28;20161;-65
2022/04/09 04:41:09;;;;;;;0.40;0.40;;;3.10;99.90;;;;;;5093909;28;20032;-65
2022/04/09 04:43:35;;;;;;;0.50;0.30;;;3.40;99.90;;;;;;5094366;28;20047;-65
2022/04/09 04:46:01;;;;;;;0.30;0.30;;;3.40;99.90;;;;;;5094770;28;20407;-65
2022/04/09 04:48:27;;;;;;;0.20;0.20;;;3.40;99.90;;;;;;5095696;28;20051;-65
2022/04/09 04:50:52;;;;;;;0.45;0.25;;;3.40;99.90;;;;;;5095530;28;20127;-65
2022/04/09 04:53:18;;;;;;;0.30;0.30;;;3.30;99.90;;;;;;5095475;28;20073;-65
2022/04/09 04:55:44;;;;;;;0.30;0.30;;;3.40;99.90;;;;;;5095391;28;20040;-65
2022/04/09 04:58:10;;;;;;;0.25;0.25;;;3.20;99.90;;;;;;5095359;28;20036;-65
2022/04/09 05:00:35;;;;;;;0.30;0.20;;;3.20;99.90;;;;;;5095318;28;20071;-65
2022/04/09 05:03:02;;;;;;;0.30;0.30;;;3.20;99.90;;;;;;5095231;28;20045;-65
2022/04/09 05:05:27;;;;;;;0.20;0.20;;;3.20;99.90;;;;;;5095086;28;20078;-65
2022/04/09 05:07:53;;;;;;;0.43;0.40;;;3.30;99.90;;;;;;5095089;28;20064;-65
2022/04/09 05:10:21;;;;;;;1.48;0.40;;;3.30;99.90;;;;;;5095221;28;20028;-65
2022/04/09 05:12:48;;;;;;;0.50;0.50;;;3.40;99.90;;;;;;5095132;28;20127;-65
2022/04/09 05:15:15;;;;;;;0.60;0.40;;;3.40;99.90;;;;;;5095161;28;20051;-65
2022/04/09 05:17:42;;;;;;;0.68;0.40;;;3.50;99.90;;;;;;5095156;28;20088;-65
2022/04/09 05:20:11;;;;;;;0.60;0.60;;;3.70;99.90;;;;;;5095127;28;20040;-65
2022/04/09 05:22:41;;;;;;;0.80;0.70;;;3.60;99.90;;;;;;5095027;28;20514;-65
2022/04/09 05:25:08;;;;;;;1.10;1.00;;;3.50;99.90;;;;;;5094769;28;20570;-65
2022/04/09 05:27:34;;;;;;;0.85;0.85;;;3.30;99.90;;;;;;5094698;28;20036;-65
2022/04/09 05:30:00;;;;;;;1.73;1.45;;;3.20;99.90;;;;;;5094862;28;20068;-65
2022/04/09 05:32:25;;;;;;;1.60;1.50;;;3.30;99.90;;;;;;5094029;28;20075;-65
2022/04/09 05:34:51;;;;;;;1.60;1.50;;;3.30;99.90;;;;;;5094552;28;20062;-65
2022/04/09 05:37:17;;;;;;;2.17;1.42;;;3.50;99.90;;;;;;5092795;28;20032;-65
2022/04/09 05:39:43;;;;;;;3.63;1.85;;;3.60;99.90;;;;;;5094581;28;20132;-65
2022/04/09 05:42:10;;;;;;;2.35;2.15;;;3.60;99.90;;;;;;5094288;28;20046;-65
2022/04/09 05:44:36;;;;;;;4.22;2.25;;;3.50;99.90;;;;;;5094168;28;20040;-65
2022/04/09 05:47:02;;;;;;;2.15;1.80;;;3.50;99.90;;;;;;5094412;28;20097;-66
2022/04/09 05:49:28;;;;;;;2.08;1.90;;;3.20;99.90;;;;;;5094162;28;20032;-66
2022/04/09 05:51:54;;;;;;;2.20;2.00;;;3.30;99.90;;;;;;5094495;28;20111;-66
2022/04/09 05:54:20;;;;;;;2.20;2.00;;;3.50;99.90;;;;;;5094579;28;20372;-66
2022/04/09 05:56:45;;;;;;;2.22;2.03;;;3.50;99.90;;;;;;5093013;28;20039;-67
2022/04/09 05:59:12;;;;;;;2.10;1.90;;;3.50;99.90;;;;;;5094294;28;20040;-65
2022/04/09 06:01:38;;;;;;;2.42;1.88;;;3.40;99.90;;;;;;5094336;28;20066;-66
2022/04/09 06:04:04;;;;;;;2.00;1.75;;;3.40;99.90;;;;;;5094271;28;20570;-67
2022/04/09 06:06:29;;;;;;;3.40;2.20;;;3.50;99.90;;;;;;5094142;28;20039;-66
2022/04/09 06:08:55;;;;;;;2.38;2.17;;;3.60;99.90;;;;;;5093978;28;20168;-66
2022/04/09 06:11:21;;;;;;;4.13;2.78;;;3.60;99.90;;;;;;5111024;28;20405;-67
2022/04/09 06:13:47;;;;;;;2.40;2.20;;;3.60;99.90;;;;;;5114121;27;20051;-66
2022/04/09 06:16:12;;;;;;;3.85;2.70;;;3.70;99.90;;;;;;5114023;28;20486;-65
2022/04/09 06:18:38;;;;;;;3.30;2.97;;;3.80;99.90;;;;;;5094164;28;20036;-67
2022/04/09 06:21:05;;;;;;;5.78;2.85;;;3.70;99.90;;;;;;5093953;28;20114;-66
2022/04/09 06:23:31;;;;;;;3.50;2.58;;;3.60;99.90;;;;;;5093692;28;20032;-67
2022/04/09 06:25:57;;;;;;;2.85;2.60;;;3.70;99.90;;;;;;5093873;28;20096;-66
2022/04/09 06:28:24;;;;;;;2.65;2.28;;;3.50;99.90;;;;;;5093729;28;20121;-67
2022/04/09 06:30:50;;;;;;;4.68;2.95;;;3.40;99.90;;;;;;5079086;28;20043;-67
2022/04/09 06:33:16;;;;;;;6.20;3.38;;;3.50;99.90;;;;;;5087265;28;20126;-67
2022/04/09 06:35:41;;;;;;;3.95;3.08;;;3.70;99.90;;;;;;5093780;28;20119;-67
2022/04/09 06:38:07;;;;;;;4.22;3.38;;;3.70;99.90;;;;;;5093555;28;20040;-67
2022/04/09 06:40:33;;;;;;;4.28;3.88;;;3.80;99.90;;;;;;5093651;28;20044;-67
2022/04/09 06:42:59;;;;;;;5.90;3.85;;;3.80;99.90;;;;;;5093635;28;20032;-67
2022/04/09 06:45:25;;;;;;;5.50;3.88;;;3.90;99.90;;;;;;5093537;28;20122;-67
2022/04/09 06:47:51;;;;;;;4.65;4.22;;;3.90;99.90;;;;;;5093159;28;20448;-67
2022/04/09 06:50:17;;;;;;;8.73;4.78;;;3.90;99.90;;;;;;5093374;28;20028;-67
2022/04/09 06:52:43;;;;;;;5.10;4.60;;;4.00;99.90;;;;;;5093378;28;20127;-66
2022/04/09 06:55:10;;;;;;;8.43;5.47;;;4.10;99.90;;;;;;5093339;28;20055;-66
2022/04/09 06:57:41;;;;;;;6.65;5.25;;;4.00;99.90;;;;;;5093184;28;20036;-66
2022/04/09 07:00:14;;;;;;;5.43;4.85;;;4.00;99.90;;;;;;5093215;28;20126;-67
2022/04/09 07:02:40;;;;;;;6.18;5.30;;;4.10;99.90;;;;;;5093187;28;20525;-67
2022/04/09 07:05:07;;;;;;;9.23;5.28;;;4.10;99.90;;;;;;5093039;28;20040;-66
2022/04/09 07:07:33;;;;;;;6.97;4.45;;;4.20;99.90;;;;;;5092820;28;20073;-67
2022/04/09 07:10:05;;;;;;;6.53;4.43;;;4.20;99.90;;;;;;5091675;28;20126;-67
2022/04/09 07:12:32;;;;;;;8.38;5.40;;;4.20;99.90;;;;;;5092981;28;20523;-66
2022/04/09 07:14:57;;;;;;;6.97;5.78;;;4.30;99.90;;;;;;5093003;28;20051;-67
2022/04/09 07:17:26;;;;;;;7.03;4.75;;;4.30;99.90;;;;;;5093272;28;20487;-67
2022/04/09 07:19:56;;;;;;;6.25;5.30;;;4.30;99.90;;;;;;5093223;28;20082;-67
2022/04/09 07:22:22;;;;;;;9.23;5.90;;;4.40;99.90;;;;;;5092962;28;20028;-67
2022/04/09 07:24:48;;;;;;;9.20;5.50;;;4.30;99.90;;;;;;5092932;28;20406;-66
2022/04/09 07:27:14;;;;;;;17.88;14.27;;;4.50;99.90;;;;;;5092885;28;20040;-67
2022/04/09 07:29:39;;;;;;;10.45;7.50;;;4.60;99.90;;;;;;5092997;28;20406;-67
2022/04/09 07:32:05;;;;;;;8.20;5.57;;;4.70;99.90;;;;;;5091681;28;20401;-67
2022/04/09 07:34:31;;;;;;;7.68;5.70;;;4.20;99.90;;;;;;5092787;28;20047;-67
2022/04/09 07:36:57;;;;;;;8.88;5.03;;;4.10;99.90;;;;;;5092825;28;20119;-67
2022/04/09 07:39:23;;;;;;;11.38;5.88;;;4.30;99.90;;;;;;5092731;28;20042;-67
2022/04/09 07:41:48;;;;;;;11.00;5.72;;;4.40;99.90;;;;;;5092735;28;20414;-67
2022/04/09 07:44:14;;;;;;;8.75;5.65;;;4.80;99.90;;;;;;5092660;28;20054;-66
2022/04/09 07:46:40;;;;;;;9.75;5.00;;;4.70;99.90;;;;;;5092602;28;20766;-67
2022/04/09 07:49:06;;;;;;;8.65;5.10;;;4.70;99.90;;;;;;5092449;28;20043;-66
2022/04/09 07:51:31;;;;;;;11.05;5.82;;;4.90;99.90;;;;;;5091170;28;20062;-66
2022/04/09 07:53:57;;;;;;;8.40;5.75;;;4.80;99.90;;;;;;5092432;28;20052;-67
2022/04/09 07:56:23;;;;;;;13.60;9.10;;;4.90;99.90;;;;;;5092691;28;20024;-68
2022/04/09 07:58:49;;;;;;;8.68;5.47;;;4.90;99.90;;;;;;5092623;28;20043;-67
2022/04/09 08:01:14;;;;;;;12.27;5.20;;;5.10;99.90;;;;;;5095025;28;20093;-68
2022/04/09 08:03:40;;;;;;;11.07;5.03;;;5.10;99.90;;;;;;5096282;28;20028;-68
2022/04/09 08:06:06;;;;;;;16.23;9.77;;;5.30;99.90;;;;;;5096478;28;20061;-68
2022/04/09 08:08:35;;;;;;;11.57;5.60;;;5.30;99.90;;;;;;5096538;28;20370;-66
2022/04/09 08:11:01;;;;;;;8.88;5.32;;;6.00;99.90;;;;;;5096392;28;20040;-66
2022/04/09 08:13:26;;;;;;;15.02;12.82;;;6.70;99.90;;;;;;5096186;28;20367;-68
2022/04/09 08:15:52;;;;;;;15.00;5.93;;;6.50;99.90;;;;;;5089671;28;20052;-68
2022/04/09 08:18:18;;;;;;;10.75;7.30;;;6.70;99.90;;;;;;5075723;28;20040;-68
2022/04/09 08:20:43;;;;;;;13.05;4.65;;;6.60;99.90;;;;;;5075821;28;20044;-68
2022/04/09 08:23:09;;;;;;;9.35;4.93;;;6.60;99.90;;;;;;5075889;28;20495;-69
2022/04/09 08:25:35;;;;;;;11.15;5.00;;;6.50;99.90;;;;;;5075882;28;20040;-68
2022/04/09 08:28:02;;;;;;;7.70;4.15;;;6.30;99.90;;;;;;5075673;28;20028;-69
2022/04/09 08:30:29;;;;;;;7.75;4.15;;;5.70;99.90;;;;;;5075641;28;20131;-68
2022/04/09 08:32:56;;;;;;;9.60;4.38;;;5.90;99.90;;;;;;5075498;28;20506;-68
2022/04/09 08:35:22;;;;;;;5.80;3.60;;;5.70;99.90;;;;;;5075536;28;20079;-69
2022/04/09 08:37:55;;;;;;;21.13;13.15;;;5.60;99.90;;;;;;5075524;28;20036;-68
2022/04/09 08:40:22;;;;;;;7.63;4.10;;;5.50;99.90;;;;;;5075194;28;20055;-68
2022/04/09 08:42:49;;;;;;;11.50;4.10;;;5.60;99.90;;;;;;5075631;28;20120;-68
2022/04/09 08:45:18;;;;;;;9.40;4.25;;;5.60;99.90;;;;;;5075374;28;20097;-68
2022/04/09 08:47:45;;;;;;;8.50;3.90;;;5.50;99.90;;;;;;5077534;28;20515;-66
2022/04/09 08:50:12;;;;;;;10.05;3.85;;;6.00;99.90;;;;;;5083757;28;20039;-68
2022/04/09 08:52:44;;;;;;;8.63;3.75;;;6.20;99.90;;;;;;5092749;28;20044;-68
2022/04/09 08:55:13;;;;;;;8.32;3.70;;;6.20;99.90;;;;;;5083898;28;20537;-68
2022/04/09 08:57:40;;;;;;;8.50;4.13;;;6.30;99.90;;;;;;5084714;28;20039;-68
2022/04/09 09:00:10;;;;;;;9.30;4.10;;;6.10;99.90;;;;;;5085496;28;20051;-69
2022/04/09 09:02:37;;;;;;;8.65;3.58;;;6.20;99.90;;;;;;5085505;28;20040;-68
2022/04/09 09:05:04;;;;;;;13.77;3.33;;;6.70;99.90;;;;;;5087985;28;20044;-69
2022/04/09 09:07:30;;;;;;;8.65;3.78;;;7.30;99.90;;;;;;5092009;28;20028;-69
2022/04/09 09:10:15;;;;;;;10.05;3.10;;;6.50;99.90;;;;;;5095499;28;20036;-68
2022/04/09 09:12:41;;;;;;;12.10;3.92;;;6.30;99.90;;;;;;5094541;28;20121;-69
2022/04/09 09:15:07;;;;;;;11.13;3.53;;;6.20;99.90;;;;;;5090118;28;20499;-67
2022/04/09 09:17:33;;;;;;;8.80;3.38;;;5.90;99.90;;;;;;5093203;28;20093;-66
2022/04/09 09:20:00;;;;;;;9.40;3.92;;;5.90;99.90;;;;;;5091891;28;20037;-68
2022/04/09 09:22:37;;;;;;;6.50;3.22;;;6.10;99.90;;;;;;5094681;28;20040;-69
2022/04/09 09:25:03;;;;;;;14.07;3.30;;;6.90;99.90;;;;;;5091087;28;20032;-67
2022/04/09 09:27:29;;;;;;;7.38;3.03;;;6.70;99.90;;;;;;5094701;28;20044;-69
2022/04/09 09:29:55;;;;;;;10.88;3.47;;;6.40;99.90;;;;;;5084153;28;20036;-66
2022/04/09 09:32:29;;;;;;;6.75;2.95;;;6.50;99.90;;;;;;5074958;28;20086;-69
2022/04/09 09:34:59;;;;;;;9.32;2.90;;;6.40;99.90;;;;;;5087018;28;20466;-69
2022/04/09 09:37:28;;;;;;;10.68;3.78;;;6.20;99.90;;;;;;5098619;28;20036;-65
2022/04/09 09:39:54;;;;;;;7.30;3.28;;;6.40;99.90;;;;;;5091131;28;20032;-69
2022/04/09 09:42:22;;;;;;;5.57;2.42;;;7.00;99.90;;;;;;5108643;28;20035;-67
2022/04/09 09:44:50;;;;;;;7.40;2.92;;;6.50;99.90;;;;;;5087416;28;20403;-66
2022/04/09 09:47:17;;;;;;;7.32;2.78;;;7.10;99.90;;;;;;5090835;28;20042;-68
2022/04/09 09:50:03;;;;;;;6.35;2.72;;;7.50;99.90;;;;;;5082668;28;20051;-69
2022/04/09 09:52:36;;;;;;;5.07;2.42;;;7.60;99.90;;;;;;5091094;28;20114;-69
2022/04/09 09:55:10;;;;;;;5.18;2.33;;;7.40;99.90;;;;;;5088937;28;20043;-69
2022/04/09 09:57:38;;;;;;;10.18;2.75;;;7.60;99.90;;;;;;5089340;28;20109;-69
2022/04/09 10:00:07;;;;;;;9.95;4.53;;;7.80;99.90;;;;;;5082320;28;20090;-70
2022/04/09 10:02:33;;;;;;;17.42;9.65;;;8.00;99.90;;;;;;5087268;28;20036;-70
2022/04/09 10:05:00;;;;;;;8.90;4.60;;;;;;;;;;5076790;28;20457;-66
2022/04/09 10:07:26;;;;;;;9.55;4.57;;;7.70;99.90;;;;;;5079008;28;20093;-66
2022/04/09 10:09:53;;;;;;;15.77;5.57;;;7.70;99.90;;;;;;5074347;28;20043;-70
2022/04/09 10:12:28;;;;;;;9.50;3.00;;;7.70;99.90;;;;;;5089062;28;20044;-71
2022/04/09 10:14:57;;;;;;;14.35;7.18;;;7.90;99.90;;;;;;5088267;28;20048;-65
2022/04/09 10:17:23;;;;;;;11.18;5.97;;;8.00;99.90;;;;;;5074016;28;20041;-71
2022/04/09 11:49:28;;;;;;;4.93;2.17;;;7.40;99.90;;;;;;5148941;27;20325;-73
2022/04/09 11:51:55;;;;;;;5.35;1.60;;;6.60;99.90;;;;;;5109490;27;20053;-73
2022/04/09 11:54:21;;;;;;;4.70;1.33;;;6.60;99.90;;;;;;5127707;27;20051;-73
2022/04/09 11:56:47;;;;;;;10.15;4.00;;;6.70;99.90;;;;;;5127055;27;20088;-73
2022/04/09 11:59:16;;;;;;;6.20;3.10;;;6.80;99.90;;;;;;5128749;27;20058;-73
2022/04/09 12:01:54;;;;;;;6.82;2.55;;;7.40;99.90;;;;;;5128835;27;20027;-74
2022/04/09 12:04:23;;;;;;;6.78;2.33;;;8.20;99.90;;;;;;5109855;28;20067;-74
2022/04/09 12:06:50;;;;;;;9.60;3.17;;;8.20;99.90;;;;;;5110062;28;20043;-75
2022/04/09 12:09:21;;;;;;;7.50;2.25;;;9.20;99.90;;;;;;5129061;27;20051;-74
2022/04/09 12:11:53;;;;;;;4.10;2.00;;;9.50;99.90;;;;;;5109021;28;20513;-74
2022/04/09 12:14:25;;;;;;;6.40;2.72;;;9.40;99.90;;;;;;5127465;27;20039;-75
2022/04/09 12:16:51;;;;;;;5.72;1.90;;;7.30;99.90;;;;;;5110101;27;20510;-74
2022/04/09 12:19:28;;;;;;;3.92;1.45;;;7.10;99.90;;;;;;5127455;27;20043;-75
2022/04/09 12:21:55;;;;;;;3.28;1.40;;;6.30;99.90;;;;;;5126428;28;20032;-73
2022/04/09 12:24:20;;;;;;;4.03;1.08;;;6.10;99.90;;;;;;5127495;28;20043;-72
2022/04/09 12:26:57;;;;;;;2.38;1.20;;;6.20;99.90;;;;;;5126500;27;20505;-73
2022/04/09 12:29:26;;;;;;;3.75;1.35;;;6.00;99.90;;;;;;5127816;27;20055;-73
2022/04/09 12:32:13;;;;;;;3.72;1.00;;;6.10;99.90;;;;;;5126644;28;20163;-73
2022/04/09 12:34:59;;;;;;;2.35;1.23;;;5.80;99.90;;;;;;5126354;28;20118;-73
2022/04/09 12:37:26;;;;;;;2.50;1.42;;;5.30;99.90;;;;;;5128490;28;20043;-74
2022/04/09 12:40:09;;;;;;;3.20;1.83;;;5.70;99.90;;;;;;5127060;28;20505;-74
2022/04/09 12:42:35;;;;;;;3.60;1.20;;;5.90;99.90;;;;;;4975589;28;3951524;-73
2022/04/09 12:45:17;;;;;;;3.45;0.95;;;6.10;99.90;;;;;;5089203;28;20093;-73
2022/04/09 12:47:58;;;;;;;1.40;0.90;;;6.40;99.90;;;;;;5088842;28;20055;-74
2022/04/09 12:50:33;;;;;;;11.52;4.95;;;6.70;99.90;;;;;;5093880;28;20138;-73
2022/04/09 12:53:02;;;;;;;12.38;3.72;;;6.50;99.90;;;;;;5094410;28;20483;-73
2022/04/09 12:55:30;;;;;;;5.70;3.03;;;6.60;99.90;;;;;;5076456;28;20040;-73
2022/04/09 12:57:56;;;;;;;4.35;1.50;;;6.80;99.90;;;;;;5095337;28;20043;-73
2022/04/09 13:00:24;;;;;;;5.47;1.50;;;7.90;99.90;;;;;;5081690;28;20048;-73
2022/04/09 13:02:51;;;;;;;6.20;1.17;;;8.00;99.90;;;;;;5076862;28;20071;-73
2022/04/09 13:05:17;;;;;;;4.53;2.28;;;7.80;99.90;;;;;;5076471;28;20036;-73
2022/04/09 13:07:46;;;;;;;2.55;1.27;;;7.50;99.90;;;;;;5093751;28;20137;-73
2022/04/09 13:10:14;;;;;;;5.13;1.20;;;7.50;99.90;;;;;;5093935;28;20383;-73
2022/04/09 13:12:41;;;;;;;3.78;1.80;;;7.80;99.90;;;;;;5071985;28;20048;-73
2022/04/09 13:15:09;;;;;;;8.65;2.35;;;8.90;99.90;;;;;;5055766;28;20126;-74
2022/04/09 13:17:36;;;;;;;6.95;1.63;;;8.20;99.90;;;;;;5073769;28;20045;-73
2022/04/09 13:20:06;;;;;;;5.13;1.30;;;8.20;99.90;;;;;;5074726;28;20122;-74
2022/04/09 13:22:33;;;;;;;6.22;2.42;;;8.40;99.90;;;;;;5074869;28;20486;-73
2022/04/09 13:24:59;;;;;;;4.80;1.52;;;8.50;99.90;;;;;;5073500;28;20399;-73
2022/04/09 13:27:25;;;;;;;5.20;2.50;;;8.40;99.90;;;;;;5074873;28;20049;-74
2022/04/09 13:29:51;;;;;;;2.92;1.58;;;8.40;99.90;;;;;;5075499;28;20040;-73
2022/04/09 13:32:17;;;;;;;4.25;1.58;;;9.00;99.90;;;;;;5073265;28;20124;-74
2022/04/09 13:34:45;;;;;;;5.35;1.75;;;9.20;99.90;;;;;;5071901;28;20032;-73
2022/04/09 13:37:13;;;;;;;3.67;1.83;;;9.20;99.90;;;;;;5072753;28;20154;-73
2022/04/09 13:39:39;;;;;;;3.75;1.20;;;9.20;99.90;;;;;;5074577;28;20771;-73
2022/04/09 13:42:07;;;;;;;8.18;2.70;;;9.40;99.90;;;;;;5072354;28;20052;-75
2022/04/09 13:44:33;;;;;;;4.82;0.93;;;9.60;99.90;;;;;;5072435;28;20055;-71
2022/04/09 13:46:59;;;;;;;5.85;1.25;;;;;;;;;;5088949;28;20040;-73
2022/04/09 13:49:25;;;;;;;2.55;1.67;;;9.20;99.90;;;;;;5075741;28;20586;-72
2022/04/09 13:51:51;;;;;;;6.30;1.90;;;9.40;99.90;;;;;;5054311;28;20131;-72
2022/04/09 13:54:17;;;;;;;3.15;1.20;;;9.00;99.90;;;;;;5072454;28;20094;-72
2022/04/09 13:56:42;;;;;;;15.50;5.43;;;8.40;99.90;;;;;;5072457;28;20041;-72
2022/04/09 13:59:09;;;;;;;6.70;2.28;;;8.40;99.90;;;;;;5073897;28;20068;-71
2022/04/09 14:01:35;;;;;;;7.43;2.28;;;8.10;99.90;;;;;;5070991;28;20040;-71
2022/04/09 14:04:00;;;;;;;6.65;1.27;;;8.00;99.90;;;;;;5071764;28;20434;-71
2022/04/09 14:06:26;;;;;;;3.15;1.00;;;6.90;99.90;;;;;;5074540;28;20089;-74
2022/04/09 14:08:54;;;;;;;3.22;1.20;;;5.20;99.90;;;;;;5072390;28;20090;-72
2022/04/09 14:11:20;;;;;;;3.83;0.90;;;5.00;99.90;;;;;;5072771;28;20032;-73
2022/04/09 14:13:48;;;;;;;3.28;1.13;;;5.10;99.90;;;;;;5056025;28;20049;-74
2022/04/09 14:16:14;;;;;;;4.15;1.10;;;4.90;99.90;;;;;;5071777;28;20372;-73
2022/04/09 14:18:40;;;;;;;3.17;0.57;;;4.20;99.90;;;;;;5071989;28;20121;-74
2022/04/09 14:21:05;;;;;;;3.58;0.95;;;4.20;99.90;;;;;;5088135;28;20490;-73
2022/04/09 14:23:32;;;;;;;2.75;1.08;;;3.90;99.90;;;;;;5090894;28;20415;-72
2022/04/09 14:25:58;;;;;;;2.58;0.98;;;4.10;99.90;;;;;;5075788;28;20395;-73
2022/04/09 14:28:26;;;;;;;1.50;0.65;;;4.80;99.90;;;;;;5078792;28;20052;-71
2022/04/09 14:30:53;;;;;;;1.52;0.60;;;4.90;99.90;;;;;;5071781;28;20133;-72
2022/04/09 14:33:20;;;;;;;0.63;0.45;;;5.40;99.90;;;;;;5070749;28;20044;-73
2022/04/09 14:35:50;;;;;;;3.53;1.35;;;5.70;99.90;;;;;;5070808;28;20029;-78
2022/04/09 14:38:16;;;;;;;1.97;1.07;;;5.70;99.90;;;;;;5077150;28;20064;-74
2022/04/09 14:40:43;;;;;;;1.35;0.60;;;6.20;99.90;;;;;;5090224;28;20043;-77
2022/04/09 14:43:09;;;;;;;1.90;0.95;;;6.30;99.90;;;;;;5091815;28;20047;-74
2022/04/09 14:45:35;;;;;;;5.53;3.97;;;6.20;99.90;;;;;;5092140;28;20444;-79
2022/04/09 14:48:01;;;;;;;2.08;1.50;;;6.60;99.90;;;;;;5092604;28;20083;-75
2022/04/09 14:50:27;;;;;;;6.47;1.23;;;6.80;99.90;;;;;;5073480;28;20515;-74
2022/04/09 14:52:54;;;;;;;3.22;1.38;;;6.60;99.90;;;;;;5073154;28;20036;-73
2022/04/09 14:55:20;;;;;;;5.60;2.10;;;6.50;99.90;;;;;;5087215;28;20089;-73
2022/04/09 14:57:46;;;;;;;5.72;1.70;;;6.40;99.90;;;;;;5063662;28;20450;-71
2022/04/09 15:00:13;;;;;;;2.85;1.73;;;6.00;99.90;;;;;;5082874;28;20035;-77
2022/04/09 15:02:43;;;;;;;7.72;5.47;;;5.50;99.90;;;;;;5083663;28;20044;-72
2022/04/09 15:05:10;;;;;;;5.78;3.28;;;5.30;99.90;;;;;;5080552;28;20060;-77
2022/04/09 15:07:37;;;;;;;7.35;3.78;;;5.60;99.90;;;;;;5062130;28;20467;-72
2022/04/09 15:10:04;;;;;;;5.70;4.07;;;6.00;99.90;;;;;;5081904;28;20546;-76
2022/04/09 15:12:31;;;;;;;3.63;1.00;;;6.20;99.90;;;;;;5079091;28;20040;-76
2022/04/09 15:14:57;;;;;;;4.88;1.52;;;6.50;99.90;;;;;;5081446;28;20561;-74
2022/04/09 15:17:24;;;;;;;3.38;1.35;;;6.70;99.90;;;;;;5079700;28;20043;-76
2022/04/09 15:19:50;;;;;;;2.47;1.50;;;6.70;99.90;;;;;;5080953;28;20036;-74
2022/04/09 15:22:16;;;;;;;2.35;0.80;;;6.80;99.90;;;;;;5081413;28;20041;-78
2022/04/09 15:24:42;;;;;;;2.88;2.08;;;6.90;99.90;;;;;;5079876;28;20036;-80
2022/04/09 15:27:10;;;;;;;2.97;1.13;;;7.00;99.90;;;;;;5081067;28;20036;-81
2022/04/09 15:29:36;;;;;;;2.30;0.90;;;7.00;99.90;;;;;;5081177;28;20537;-76
2022/04/09 15:32:02;;;;;;;2.45;0.80;;;7.00;99.90;;;;;;5079787;28;20040;-81
2022/04/09 15:34:28;;;;;;;4.00;0.80;;;7.40;99.90;;;;;;5078870;28;20044;-74
2022/04/09 15:36:54;;;;;;;3.20;1.10;;;7.60;99.90;;;;;;5080422;28;20384;-77
2022/04/09 15:39:19;;;;;;;2.05;1.23;;;7.60;99.90;;;;;;5080744;28;20043;-74
2022/04/09 15:41:46;;;;;;;2.92;1.45;;;7.20;99.90;;;;;;5081026;28;20468;-75
2022/04/09 15:44:12;;;;;;;4.07;1.65;;;7.20;99.90;;;;;;5080826;28;20068;-79
2022/04/09 15:46:38;;;;;;;6.22;2.33;;;7.40;99.90;;;;;;5081429;28;20075;-74
2022/04/09 15:49:05;;;;;;;2.47;1.10;;;7.30;99.90;;;;;;5080920;28;20504;-75
2022/04/09 15:51:31;;;;;;;6.78;0.90;;;7.60;99.90;;;;;;5082510;28;20032;-74
2022/04/09 15:53:58;;;;;;;4.75;1.20;;;7.50;99.90;;;;;;5090605;28;20066;-74
2022/04/09 15:56:24;;;;;;;2.63;1.05;;;7.50;99.90;;;;;;5090835;28;20071;-74
2022/04/09 15:58:50;;;;;;;3.13;1.10;;;7.40;99.90;;;;;;5090601;28;20072;-75
2022/04/09 16:01:16;;;;;;;2.83;1.20;;;7.60;99.90;;;;;;5090645;28;20093;-74
2022/04/09 16:03:41;;;;;;;3.28;1.35;;;7.50;99.90;;;;;;5089991;28;20043;-74
2022/04/09 16:06:07;;;;;;;3.22;2.60;;;7.60;99.90;;;;;;5083522;28;20036;-72
2022/04/09 16:08:33;;;;;;;4.32;1.10;;;7.70;99.90;;;;;;5079309;28;20048;-74
2022/04/09 16:11:00;;;;;;;2.65;1.00;;;7.90;99.90;;;;;;5069763;28;20080;-74
2022/04/09 16:13:26;;;;;;;2.60;1.10;;;8.00;99.90;;;;;;5070800;28;20503;-74
2022/04/09 16:15:52;;;;;;;7.55;4.03;;;7.70;99.90;;;;;;5070015;28;20040;-74
2022/04/09 16:18:18;;;;;;;7.07;2.28;;;7.60;99.90;;;;;;5070736;28;20507;-74
2022/04/09 16:20:45;;;;;;;5.32;2.90;;;7.70;99.90;;;;;;5070231;28;20036;-74
2022/04/09 16:23:11;;;;;;;6.75;2.67;;;7.70;99.90;;;;;;5070701;28;20066;-75
2022/04/09 16:25:37;;;;;;;4.18;2.40;;;7.80;99.90;;;;;;5075562;28;20546;-73
2022/04/09 16:28:03;;;;;;;4.35;1.52;;;7.90;99.90;;;;;;5056355;28;20407;-73
2022/04/09 16:30:30;;;;;;;2.17;1.30;;;8.00;99.90;;;;;;5074365;28;20446;-72
2022/04/09 16:32:56;;;;;;;9.95;2.63;;;7.90;99.90;;;;;;5073792;28;20518;-74
2022/04/09 16:35:22;;;;;;;3.65;1.42;;;7.90;99.90;;;;;;5075217;28;20123;-72
2022/04/09 16:37:49;;;;;;;3.17;1.27;;;8.00;99.90;;;;;;5057925;28;20040;-71
2022/04/09 16:40:15;;;;;;;4.70;1.40;;;8.10;99.90;;;;;;5075813;28;20175;-72
2022/04/09 16:42:41;;;;;;;4.95;1.58;;;8.10;99.90;;;;;;5075692;28;20047;-72
2022/04/09 16:45:07;;;;;;;4.10;2.00;;;8.10;99.90;;;;;;5074559;28;20040;-72
2022/04/09 16:47:33;;;;;;;3.33;1.33;;;8.10;99.90;;;;;;5073871;28;20419;-72
2022/04/09 16:49:59;;;;;;;2.90;1.20;;;8.20;99.90;;;;;;5073606;28;20491;-72
2022/04/09 16:52:25;;;;;;;2.13;0.70;;;8.10;99.90;;;;;;5073846;28;20044;-72
2022/04/09 16:54:51;;;;;;;3.25;0.88;;;8.10;99.90;;;;;;5073433;28;20039;-72
2022/04/09 16:57:17;;;;;;;7.35;1.45;;;7.90;99.90;;;;;;5073698;28;20404;-71
2022/04/09 16:59:43;;;;;;;1.90;0.80;;;7.70;99.90;;;;;;5073329;28;20035;-71
2022/04/09 17:02:10;;;;;;;3.75;0.98;;;7.50;99.90;;;;;;5073269;28;20040;-71
2022/04/09 17:04:37;;;;;;;2.72;0.90;;;7.40;99.90;;;;;;5074709;28;20043;-71
2022/04/09 17:07:04;;;;;;;7.70;1.38;;;7.30;99.90;;;;;;5073991;28;20047;-71
2022/04/09 17:09:30;;;;;;;4.10;0.85;;;7.10;99.90;;;;;;5073796;28;20396;-72
2022/04/09 17:11:55;;;;;;;3.67;1.45;;;6.80;99.90;;;;;;5073031;28;20124;-71
2022/04/09 17:14:22;;;;;;;5.78;1.20;;;6.70;99.90;;;;;;5073352;28;20487;-71
2022/04/09 17:16:48;;;;;;;4.18;1.30;;;6.50;99.90;;;;;;5074596;28;20499;-71
2022/04/09 17:19:14;;;;;;;3.50;1.13;;;6.30;99.90;;;;;;5073665;28;20045;-71
2022/04/09 17:21:40;;;;;;;5.20;0.75;;;6.20;99.90;;;;;;5073213;28;20046;-71
2022/04/09 17:24:07;;;;;;;8.68;1.55;;;6.00;99.90;;;;;;5075515;28;20036;-72
2022/04/09 17:26:33;;;;;;;5.10;1.70;;;6.00;99.90;;;;;;5073350;28;20143;-72